createdAt,value
2018-03-18T00:00:52.269Z,63.05
2018-03-18T00:03:20.033Z,62.43
2018-03-18T00:05:47.875Z,62.89
2018-03-18T00:08:15.450Z,62.75
2018-03-18T00:10:42.996Z,63.20
2018-03-18T00:13:11.498Z,63.70
2018-03-18T00:15:39.118Z,63.19
2018-03-18T00:18:06.801Z,62.47
2018-03-18T00:20:34.364Z,63.76
2018-03-18T00:23:01.899Z,62.96
2018-03-18T00:25:29.506Z,63.67
2018-03-18T00:27:57.031Z,64.19
2018-03-18T00:30:24.581Z,63.54
2018-03-18T00:32:52.144Z,63.07
2018-03-18T00:35:19.675Z,63.47
2018-03-18T00:37:47.468Z,63.46
2018-03-18T00:40:15.048Z,63.67
2018-03-18T00:42:42.909Z,63.58
2018-03-18T00:45:10.429Z,63.16
2018-03-18T00:47:37.964Z,62.94
2018-03-18T00:50:05.509Z,63.78
2018-03-18T00:52:33.027Z,63.35
2018-03-18T00:55:00.914Z,63.45
2018-03-18T00:57:28.432Z,63.59
2018-03-18T00:59:55.956Z,64.08
2018-03-18T01:02:23.506Z,64.20
2018-03-18T01:04:51.201Z,63.53
2018-03-18T01:07:18.759Z,63.54
2018-03-18T01:09:46.279Z,63.62
2018-03-18T01:12:13.794Z,63.01
2018-03-18T01:14:41.341Z,63.08
2018-03-18T01:17:09.782Z,62.86
2018-03-18T01:19:38.055Z,63.18
2018-03-18T01:22:05.572Z,63.82
2018-03-18T01:24:33.100Z,64.04
2018-03-18T01:27:00.656Z,63.64
2018-03-18T01:29:28.178Z,64.05
2018-03-18T01:31:56.133Z,63.21
2018-03-18T01:34:23.641Z,64.10
2018-03-18T01:36:51.166Z,64.29
2018-03-18T01:39:18.732Z,63.64
2018-03-18T01:41:46.253Z,63.08
2018-03-18T01:44:13.823Z,63.17
2018-03-18T01:46:41.342Z,63.04
2018-03-18T01:49:08.876Z,63.14
2018-03-18T01:51:36.420Z,63.08
2018-03-18T01:54:03.934Z,63.31
2018-03-18T01:56:31.489Z,63.22
2018-03-18T01:58:59.010Z,63.14
2018-03-18T02:01:26.530Z,63.03
2018-03-18T02:03:54.073Z,62.72
2018-03-18T02:06:21.590Z,63.15
2018-03-18T02:08:49.139Z,63.20
2018-03-18T02:11:16.653Z,63.98
2018-03-18T02:13:44.169Z,64.44
2018-03-18T02:16:11.706Z,64.32
2018-03-18T02:18:39.218Z,63.85
2018-03-18T02:21:06.914Z,64.35
2018-03-18T02:23:34.430Z,64.35
2018-03-18T02:26:01.941Z,63.88
2018-03-18T02:28:29.477Z,63.97
2018-03-18T02:30:57.002Z,63.87
2018-03-18T02:33:24.723Z,64.20
2018-03-18T02:35:52.495Z,64.00
2018-03-18T02:38:20.009Z,65.13
2018-03-18T02:40:47.567Z,64.71
2018-03-18T02:43:15.086Z,64.27
2018-03-18T02:45:42.717Z,63.75
2018-03-18T02:48:10.231Z,64.78
2018-03-18T02:50:37.742Z,64.30
2018-03-18T02:53:05.292Z,64.25
2018-03-18T02:55:32.809Z,64.76
2018-03-18T02:58:01.421Z,64.88
2018-03-18T03:00:28.933Z,64.46
2018-03-18T03:02:56.449Z,64.65
2018-03-18T03:05:23.990Z,64.72
2018-03-18T03:07:51.515Z,64.93
2018-03-18T03:10:19.324Z,64.86
2018-03-18T03:12:46.832Z,64.22
2018-03-18T03:15:14.429Z,64.40
2018-03-18T03:17:41.968Z,64.76
2018-03-18T03:20:09.481Z,64.86
2018-03-18T03:22:37.421Z,64.96
2018-03-18T03:25:04.934Z,64.52
2018-03-18T03:27:32.456Z,64.41
2018-03-18T03:29:59.997Z,65.24
2018-03-18T03:32:27.509Z,64.65
2018-03-18T03:34:55.057Z,64.36
2018-03-18T03:37:22.578Z,64.74
2018-03-18T03:39:50.093Z,64.65
2018-03-18T03:42:17.630Z,64.99
2018-03-18T03:44:45.141Z,64.92
2018-03-18T03:47:12.813Z,65.30
2018-03-18T03:49:40.322Z,65.07
2018-03-18T03:52:07.851Z,65.48
2018-03-18T03:54:35.395Z,65.40
2018-03-18T03:57:02.912Z,65.98
2018-03-18T03:59:30.471Z,66.03
2018-03-18T04:01:57.981Z,65.28
2018-03-18T04:04:25.543Z,65.82
2018-03-18T04:06:53.068Z,65.53
2018-03-18T04:09:20.590Z,65.67
2018-03-18T04:11:48.141Z,65.74
2018-03-18T04:14:15.662Z,66.04
2018-03-18T04:16:43.178Z,65.42
2018-03-18T04:19:11.627Z,65.64
2018-03-18T04:21:39.142Z,65.74
2018-03-18T04:24:06.836Z,65.22
2018-03-18T04:26:34.366Z,65.11
2018-03-18T04:29:01.887Z,65.22
2018-03-18T04:31:29.433Z,66.14
2018-03-18T04:33:56.990Z,65.29
2018-03-18T04:36:24.530Z,65.61
2018-03-18T04:38:52.046Z,65.34
2018-03-18T04:41:19.580Z,65.19
2018-03-18T04:43:47.129Z,65.25
2018-03-18T04:46:14.649Z,65.05
2018-03-18T04:48:42.413Z,64.86
2018-03-18T04:51:09.937Z,65.45
2018-03-18T04:53:37.458Z,64.62
2018-03-18T04:56:04.998Z,65.99
2018-03-18T04:58:33.490Z,65.64
2018-03-18T05:01:01.534Z,65.56
2018-03-18T05:03:29.055Z,65.39
2018-03-18T05:05:56.578Z,65.32
2018-03-18T05:08:24.647Z,65.96
2018-03-18T05:10:52.171Z,65.87
2018-03-18T05:13:19.942Z,64.88
2018-03-18T05:15:47.474Z,65.78
2018-03-18T05:18:14.986Z,65.22
2018-03-18T05:20:42.529Z,65.78
2018-03-18T05:23:10.054Z,66.03
2018-03-18T05:25:37.619Z,66.05
2018-03-18T05:28:05.139Z,66.10
2018-03-18T05:30:32.653Z,65.62
2018-03-18T05:33:00.215Z,65.46
2018-03-18T05:35:27.729Z,66.39
2018-03-18T05:37:55.387Z,65.56
2018-03-18T05:40:22.910Z,65.18
2018-03-18T05:42:50.450Z,65.69
2018-03-18T05:45:17.986Z,64.53
2018-03-18T05:47:45.505Z,63.96
2018-03-18T05:50:13.053Z,64.74
2018-03-18T05:52:40.569Z,63.69
2018-03-18T05:55:08.085Z,63.29
2018-03-18T05:57:35.631Z,62.87
2018-03-18T06:00:03.142Z,63.03
2018-03-18T06:02:30.689Z,62.80
2018-03-18T06:04:58.200Z,63.06
2018-03-18T06:07:25.715Z,62.71
2018-03-18T06:09:53.259Z,62.48
2018-03-18T06:12:20.778Z,63.52
2018-03-18T06:14:48.514Z,62.17
2018-03-18T06:17:16.026Z,62.35
2018-03-18T06:19:43.540Z,62.71
2018-03-18T06:22:11.081Z,62.66
2018-03-18T06:24:38.629Z,61.97
2018-03-18T06:27:06.181Z,62.49
2018-03-18T06:29:33.716Z,62.56
2018-03-18T06:32:01.230Z,61.68
2018-03-18T06:34:28.773Z,61.92
2018-03-18T06:36:56.286Z,61.51
2018-03-18T06:39:24.012Z,61.60
2018-03-18T06:41:51.527Z,61.72
2018-03-18T06:44:19.059Z,61.68
2018-03-18T06:46:46.606Z,60.17
2018-03-18T06:49:14.121Z,60.40
2018-03-18T06:51:42.112Z,60.04
2018-03-18T06:54:09.741Z,60.01
2018-03-18T06:56:37.268Z,60.87
2018-03-18T06:59:04.813Z,59.95
2018-03-18T07:01:32.798Z,60.16
2018-03-18T07:04:00.556Z,59.95
2018-03-18T07:06:28.078Z,60.04
2018-03-18T07:08:55.662Z,59.91
2018-03-18T07:11:23.222Z,59.77
2018-03-18T07:13:50.750Z,59.54
2018-03-18T07:16:18.415Z,59.81
2018-03-18T07:18:45.929Z,59.29
2018-03-18T07:21:13.445Z,58.84
2018-03-18T07:23:41.006Z,59.40
2018-03-18T07:26:08.672Z,58.53
2018-03-18T07:28:36.544Z,58.25
2018-03-18T07:31:04.074Z,58.16
2018-03-18T07:33:31.762Z,58.11
2018-03-18T07:35:59.312Z,57.94
2018-03-18T07:38:26.838Z,57.46
2018-03-18T07:40:54.626Z,57.08
2018-03-18T07:43:22.171Z,57.20
2018-03-18T07:45:49.699Z,57.47
2018-03-18T07:48:17.307Z,57.01
2018-03-18T07:50:44.951Z,57.06
2018-03-18T07:53:12.591Z,57.26
2018-03-18T07:55:40.102Z,56.70
2018-03-18T07:58:07.621Z,56.49
2018-03-18T08:00:35.166Z,56.22
2018-03-18T08:03:02.716Z,56.39
2018-03-18T08:05:30.646Z,56.50
2018-03-18T08:07:58.185Z,56.07
2018-03-18T08:10:25.765Z,56.09
2018-03-18T08:12:53.427Z,56.33
2018-03-18T08:15:20.964Z,56.80
2018-03-18T08:17:48.519Z,56.57
2018-03-18T08:20:16.108Z,57.03
2018-03-18T08:22:43.662Z,56.85
2018-03-18T08:25:11.533Z,56.64
2018-03-18T08:27:39.087Z,56.13
2018-03-18T08:30:06.915Z,55.61
2018-03-18T08:32:34.620Z,55.74
2018-03-18T08:35:02.285Z,55.14
2018-03-18T08:37:30.787Z,54.68
2018-03-18T08:39:58.331Z,54.76
2018-03-18T08:42:29.116Z,54.11
2018-03-18T08:44:56.677Z,54.43
2018-03-18T08:47:24.483Z,53.52
2018-03-18T08:49:52.251Z,53.69
2018-03-18T08:52:19.863Z,54.44
2018-03-18T08:54:47.759Z,53.31
2018-03-18T08:57:15.280Z,52.49
2018-03-18T08:59:43.099Z,51.40
2018-03-18T09:02:10.928Z,51.51
2018-03-18T09:04:39.035Z,52.02
2018-03-18T09:07:06.913Z,51.29
2018-03-18T09:09:34.732Z,51.96
2018-03-18T09:12:02.533Z,51.07
2018-03-18T09:14:30.398Z,51.26
2018-03-18T09:16:58.572Z,52.19
2018-03-18T09:19:26.642Z,51.75
2018-03-18T09:21:54.919Z,52.31
2018-03-18T09:24:22.912Z,50.70
2018-03-18T09:26:50.960Z,50.12
2018-03-18T09:29:18.824Z,49.59
2018-03-18T09:31:47.716Z,50.67
2018-03-18T09:34:16.105Z,49.33
2018-03-18T09:36:44.574Z,48.88
2018-03-18T09:39:12.524Z,48.32
2018-03-18T09:41:41.292Z,48.36
2018-03-18T09:44:10.037Z,48.63
2018-03-18T09:46:37.848Z,48.89
2018-03-18T09:49:05.750Z,48.30
2018-03-18T09:51:33.720Z,47.84
2018-03-18T09:54:01.586Z,47.25
2018-03-18T09:56:29.704Z,46.82
2018-03-18T09:58:58.034Z,45.92
2018-03-18T10:01:26.107Z,45.67
2018-03-18T10:03:54.041Z,45.85
2018-03-18T10:06:21.910Z,46.69
2018-03-18T10:08:50.013Z,46.49
2018-03-18T10:11:17.982Z,47.44
2018-03-18T10:13:45.851Z,47.21
2018-03-18T10:16:13.772Z,46.70
2018-03-18T10:18:42.093Z,47.37
2018-03-18T10:21:11.235Z,46.08
2018-03-18T10:23:39.123Z,45.16
2018-03-18T10:26:07.536Z,45.30
2018-03-18T10:28:35.508Z,45.28
2018-03-18T10:31:03.478Z,43.70
2018-03-18T10:33:31.714Z,44.25
2018-03-18T10:35:59.616Z,44.32
2018-03-18T10:38:27.587Z,44.55
2018-03-18T10:40:55.657Z,45.28
2018-03-18T10:43:23.730Z,45.02
2018-03-18T10:45:52.003Z,45.05
2018-03-18T10:48:19.869Z,46.47
2018-03-18T10:50:47.805Z,46.22
2018-03-18T10:53:16.276Z,43.67
2018-03-18T10:55:44.189Z,43.95
2018-03-18T10:58:12.257Z,43.61
2018-03-18T11:00:45.081Z,43.71
2018-03-18T11:03:13.110Z,43.06
2018-03-18T11:05:41.181Z,43.63
2018-03-18T11:08:09.645Z,42.67
2018-03-18T11:10:37.713Z,42.81
2018-03-18T11:13:05.808Z,41.73
2018-03-18T11:15:33.746Z,41.09
2018-03-18T11:18:02.321Z,40.12
2018-03-18T11:20:30.329Z,38.23
2018-03-18T11:22:58.296Z,38.20
2018-03-18T11:25:26.564Z,38.87
2018-03-18T11:27:54.763Z,40.43
2018-03-18T11:30:22.546Z,39.49
2018-03-18T11:32:50.477Z,40.73
2018-03-18T11:35:18.446Z,40.64
2018-03-18T11:37:46.310Z,42.53
2018-03-18T11:40:14.690Z,42.28
2018-03-18T11:42:42.556Z,41.59
2018-03-18T11:45:10.424Z,42.43
2018-03-18T11:47:38.495Z,42.44
2018-03-18T11:50:06.362Z,41.84
2018-03-18T11:52:34.434Z,42.46
2018-03-18T11:55:02.299Z,42.19
2018-03-18T11:57:30.129Z,40.86
2018-03-18T11:59:58.032Z,40.84
2018-03-18T12:02:25.898Z,41.89
2018-03-18T12:04:54.028Z,40.63
2018-03-18T12:07:22.349Z,40.97
2018-03-18T12:09:50.213Z,41.36
2018-03-18T12:12:18.182Z,41.87
2018-03-18T12:14:46.049Z,41.48
2018-03-18T12:17:14.023Z,41.53
2018-03-18T12:19:41.883Z,42.89
2018-03-18T12:22:09.751Z,44.56
2018-03-18T12:24:37.620Z,45.23
2018-03-18T12:27:05.449Z,44.71
2018-03-18T12:29:33.658Z,44.89
2018-03-18T12:32:01.523Z,45.19
2018-03-18T12:34:29.391Z,44.29
2018-03-18T12:36:57.667Z,44.38
2018-03-18T12:39:26.410Z,44.02
2018-03-18T12:41:54.701Z,43.77
2018-03-18T12:44:23.211Z,44.71
2018-03-18T12:46:51.081Z,43.98
2018-03-18T12:49:19.354Z,44.76
2018-03-18T12:51:47.220Z,44.48
2018-03-18T12:54:15.108Z,44.47
2018-03-18T12:56:42.954Z,44.53
2018-03-18T12:59:10.820Z,44.95
2018-03-18T13:01:38.788Z,44.90
2018-03-18T13:04:06.551Z,45.15
2018-03-18T13:06:34.728Z,44.87
2018-03-18T13:09:02.559Z,45.84
2018-03-18T13:11:30.325Z,44.25
2018-03-18T13:13:58.222Z,44.79
2018-03-18T13:16:26.059Z,44.26
2018-03-18T13:18:54.277Z,44.79
2018-03-18T13:21:22.027Z,43.96
2018-03-18T13:23:49.791Z,43.84
2018-03-18T13:26:17.629Z,44.83
2018-03-18T13:28:45.527Z,44.14
2018-03-18T13:31:13.707Z,45.69
2018-03-18T13:33:41.667Z,45.21
2018-03-18T13:36:09.584Z,45.28
2018-03-18T13:38:37.517Z,44.73
2018-03-18T13:41:07.109Z,45.55
2018-03-18T13:43:35.077Z,46.05
2018-03-18T13:46:02.842Z,46.00
2018-03-18T13:48:30.674Z,46.02
2018-03-18T13:50:58.574Z,46.64
2018-03-18T13:53:26.440Z,46.18
2018-03-18T13:55:54.411Z,45.72
2018-03-18T13:58:22.240Z,46.38
2018-03-18T14:00:50.107Z,45.70
2018-03-18T14:03:17.974Z,46.24
2018-03-18T14:05:46.140Z,45.20
2018-03-18T14:08:14.006Z,46.14
2018-03-18T14:10:41.774Z,46.35
2018-03-18T14:13:09.681Z,46.82
2018-03-18T14:15:37.547Z,47.42
2018-03-18T14:18:05.517Z,46.52
2018-03-18T14:20:33.764Z,46.84
2018-03-18T14:23:01.631Z,47.64
2018-03-18T14:25:29.711Z,46.79
2018-03-18T14:27:57.799Z,47.00
2018-03-18T14:30:26.179Z,46.19
2018-03-18T14:32:55.070Z,46.13
2018-03-18T14:35:22.937Z,47.34
2018-03-18T14:37:51.320Z,48.02
2018-03-18T14:40:19.247Z,48.26
2018-03-18T14:42:47.112Z,47.57
2018-03-18T14:45:15.219Z,47.59
2018-03-18T14:47:43.087Z,48.70
2018-03-18T14:50:11.056Z,48.69
2018-03-18T14:52:39.024Z,48.46
2018-03-18T14:55:06.992Z,48.47
2018-03-18T14:57:35.107Z,49.18
2018-03-18T15:00:03.550Z,49.09
2018-03-18T15:02:32.436Z,50.10
2018-03-18T15:05:00.404Z,49.79
2018-03-18T15:07:28.271Z,50.28
2018-03-18T15:09:56.601Z,51.32
2018-03-18T15:12:24.621Z,52.16
2018-03-18T15:14:52.998Z,51.81
2018-03-18T15:17:21.445Z,52.32
2018-03-18T15:19:50.267Z,52.03
2018-03-18T15:22:18.644Z,52.24
2018-03-18T15:24:46.510Z,53.08
2018-03-18T15:27:15.194Z,52.43
2018-03-18T15:29:43.128Z,52.15
2018-03-18T15:32:11.133Z,52.91
2018-03-18T15:34:39.058Z,52.64
2018-03-18T15:37:06.969Z,52.73
2018-03-18T15:39:35.244Z,52.96
2018-03-18T15:42:03.213Z,53.23
2018-03-18T15:44:31.080Z,53.22
2018-03-18T15:46:59.355Z,53.08
2018-03-18T15:49:27.324Z,53.97
2018-03-18T15:51:55.703Z,53.08
2018-03-18T15:54:23.673Z,54.14
2018-03-18T15:56:51.540Z,53.27
2018-03-18T15:59:19.815Z,52.66
2018-03-18T16:01:47.637Z,52.22
2018-03-18T16:04:15.651Z,51.90
2018-03-18T16:06:43.721Z,52.71
2018-03-18T16:09:11.589Z,51.82
2018-03-18T16:11:39.763Z,52.18
2018-03-18T16:14:07.675Z,52.48
2018-03-18T16:16:35.596Z,52.25
2018-03-18T16:19:03.464Z,52.34
2018-03-18T16:21:31.333Z,52.95
2018-03-18T16:23:59.504Z,51.94
2018-03-18T16:26:27.368Z,52.07
2018-03-18T16:28:55.549Z,52.34
2018-03-18T16:31:23.512Z,52.25
2018-03-18T16:33:51.378Z,53.30
2018-03-18T16:36:20.478Z,52.79
2018-03-18T16:38:48.353Z,51.66
2018-03-18T16:41:16.212Z,52.45
2018-03-18T16:43:44.178Z,52.78
2018-03-18T16:46:12.144Z,52.48
2018-03-18T16:48:40.484Z,52.80
2018-03-18T16:51:08.344Z,52.82
2018-03-18T16:53:36.736Z,52.76
2018-03-18T16:56:05.042Z,52.84
2018-03-18T16:58:32.937Z,52.55
2018-03-18T17:01:01.186Z,52.95
2018-03-18T17:03:29.691Z,52.94
2018-03-18T17:05:57.840Z,53.81
2018-03-18T17:08:25.812Z,54.96
2018-03-18T17:10:53.675Z,55.19
2018-03-18T17:13:21.645Z,55.34
2018-03-18T17:15:49.512Z,55.41
2018-03-18T17:18:17.552Z,55.60
2018-03-18T17:20:45.551Z,56.36
2018-03-18T17:23:13.484Z,56.06
2018-03-18T17:25:42.410Z,56.57
2018-03-18T17:28:10.241Z,56.41
2018-03-18T17:30:38.932Z,56.07
2018-03-18T17:33:07.543Z,55.84
2018-03-18T17:35:35.466Z,55.37
2018-03-18T17:38:03.486Z,55.78
2018-03-18T17:40:31.560Z,55.79
2018-03-18T17:43:00.840Z,55.84
2018-03-18T17:45:40.702Z,55.55
2018-03-18T17:48:20.347Z,54.96
2018-03-18T17:51:00.023Z,54.11
2018-03-18T17:53:39.804Z,55.05
2018-03-18T17:59:09.666Z,54.65
2018-03-18T18:01:38.249Z,54.86
2018-03-18T18:04:06.510Z,55.37
2018-03-18T18:06:34.392Z,55.37
2018-03-18T18:09:02.873Z,54.19
2018-03-18T18:11:31.470Z,53.61
2018-03-18T18:13:59.732Z,54.10
2018-03-18T18:16:27.925Z,53.80
2018-03-18T18:18:56.899Z,53.74
2018-03-18T18:21:24.826Z,53.47
2018-03-18T18:23:53.158Z,53.79
2018-03-18T18:26:21.009Z,53.70
2018-03-18T18:28:49.491Z,53.57
2018-03-18T18:31:17.972Z,53.82
2018-03-18T18:33:45.809Z,53.78
2018-03-18T18:36:14.175Z,53.95
2018-03-18T18:38:42.084Z,53.35
2018-03-18T18:41:10.872Z,53.68
2018-03-18T18:43:38.841Z,54.86
2018-03-18T18:46:06.707Z,54.27
2018-03-18T18:48:35.495Z,53.78
2018-03-18T18:51:03.771Z,53.87
2018-03-18T18:53:32.013Z,53.34
2018-03-18T18:55:59.914Z,52.92
2018-03-18T18:58:27.746Z,52.75
2018-03-18T19:00:56.568Z,53.64
2018-03-18T19:03:24.434Z,53.93
2018-03-18T19:05:52.510Z,54.08
2018-03-18T19:08:20.542Z,53.63
2018-03-18T19:10:48.563Z,53.26
2018-03-18T19:13:17.336Z,53.77
2018-03-18T19:15:46.223Z,54.75
2018-03-18T19:18:16.038Z,54.22
2018-03-18T19:20:44.649Z,54.53
2018-03-18T19:23:12.589Z,54.42
2018-03-18T19:25:40.967Z,54.68
2018-03-18T19:28:08.918Z,56.27
2018-03-18T19:30:37.615Z,55.35
2018-03-18T19:33:05.489Z,55.50
2018-03-18T19:35:33.354Z,54.82
2018-03-18T19:38:01.238Z,54.76
2018-03-18T19:40:29.292Z,54.21
2018-03-18T19:42:58.184Z,55.00
2018-03-18T19:45:25.975Z,54.08
2018-03-18T19:47:54.204Z,53.76
2018-03-18T19:50:22.606Z,53.24
2018-03-18T19:52:50.983Z,54.68
2018-03-18T19:55:20.224Z,55.00
2018-03-18T19:57:48.429Z,54.63
2018-03-18T20:00:16.321Z,54.55
2018-03-18T20:02:44.855Z,54.25
2018-03-18T20:05:12.692Z,54.71
2018-03-18T20:07:40.743Z,55.55
2018-03-18T20:10:10.039Z,55.65
2018-03-18T20:12:37.909Z,54.84
2018-03-18T20:15:06.556Z,55.07
2018-03-18T20:17:34.422Z,54.62
2018-03-18T20:20:02.631Z,55.35
2018-03-18T20:22:31.168Z,55.87
2018-03-18T20:24:59.913Z,55.20
2018-03-18T20:27:28.266Z,55.56
2018-03-18T20:29:56.230Z,54.63
2018-03-18T20:32:24.629Z,54.81
2018-03-18T20:34:53.453Z,55.91
2018-03-18T20:37:21.386Z,54.67
2018-03-18T20:39:50.069Z,55.74
2018-03-18T20:42:18.243Z,55.77
2018-03-18T20:44:46.416Z,56.48
2018-03-18T20:47:14.712Z,56.21
2018-03-18T20:49:42.863Z,54.71
2018-03-18T20:52:10.803Z,56.07
2018-03-18T20:54:39.916Z,56.39
2018-03-18T20:57:07.805Z,55.34
2018-03-18T20:59:35.979Z,56.34
2018-03-18T21:02:04.352Z,56.20
2018-03-18T21:04:32.308Z,56.15
2018-03-18T21:07:01.077Z,56.02
2018-03-18T21:09:29.076Z,55.10
2018-03-18T21:11:57.050Z,54.90
2018-03-18T21:14:25.526Z,54.89
2018-03-18T21:16:53.494Z,55.00
2018-03-18T21:19:21.360Z,55.76
2018-03-18T21:21:50.149Z,56.04
2018-03-18T21:24:18.019Z,55.38
2018-03-18T21:26:45.789Z,55.20
2018-03-18T21:29:13.668Z,54.89
2018-03-18T21:31:41.618Z,55.46
2018-03-18T21:34:10.526Z,55.02
2018-03-18T21:36:38.424Z,55.21
2018-03-18T21:39:06.364Z,55.24
2018-03-18T21:41:35.231Z,55.54
2018-03-18T21:44:03.897Z,55.82
2018-03-18T21:46:31.886Z,55.38
2018-03-18T21:48:59.832Z,55.42
2018-03-18T21:51:27.727Z,55.61
2018-03-18T21:53:55.664Z,55.39
2018-03-18T21:56:23.631Z,55.57
2018-03-18T21:58:51.699Z,56.06
2018-03-18T22:01:19.810Z,55.35
2018-03-18T22:03:47.917Z,56.07
2018-03-18T22:06:15.945Z,56.26
2018-03-18T22:08:44.189Z,56.39
2018-03-18T22:11:12.863Z,56.65
2018-03-18T22:13:40.774Z,56.32
2018-03-18T22:16:08.788Z,56.51
2018-03-18T22:18:36.814Z,56.41
2018-03-18T22:21:04.671Z,56.27
2018-03-18T22:23:32.888Z,55.86
2018-03-18T22:26:00.720Z,55.93
2018-03-18T22:28:28.587Z,56.35
2018-03-18T22:30:56.452Z,56.18
2018-03-18T22:33:24.320Z,56.42
2018-03-18T22:35:52.618Z,56.11
2018-03-18T22:38:20.565Z,56.09
2018-03-18T22:40:48.327Z,55.85
2018-03-18T22:43:16.081Z,56.08
2018-03-18T22:45:43.959Z,57.18
2018-03-18T22:48:11.928Z,57.55
2018-03-18T22:50:39.594Z,56.58
2018-03-18T22:53:07.245Z,57.88
2018-03-18T22:55:35.117Z,57.59
2018-03-18T22:58:02.991Z,58.24
2018-03-18T23:00:31.671Z,56.88
2018-03-18T23:02:59.639Z,56.87
2018-03-18T23:05:27.363Z,56.72
2018-03-18T23:07:55.136Z,57.03
2018-03-18T23:10:22.784Z,57.68
2018-03-18T23:12:50.687Z,56.94
2018-03-18T23:15:18.221Z,56.42
2018-03-18T23:17:45.859Z,57.37
2018-03-18T23:20:13.497Z,57.14
2018-03-18T23:22:41.105Z,56.49
2018-03-18T23:25:09.301Z,58.07
2018-03-18T23:27:37.177Z,56.69
2018-03-18T23:30:04.839Z,57.27
2018-03-18T23:32:32.606Z,56.99
2018-03-18T23:35:00.368Z,56.38
2018-03-18T23:37:28.543Z,57.42
2018-03-18T23:39:56.093Z,56.91
2018-03-18T23:42:23.649Z,57.64
2018-03-18T23:44:51.322Z,57.40
2018-03-18T23:47:18.906Z,57.95
2018-03-18T23:49:46.627Z,57.40
2018-03-18T23:52:14.306Z,57.07
2018-03-18T23:54:41.850Z,57.17
2018-03-18T23:57:09.440Z,56.77
2018-03-18T23:59:38.008Z,56.03
